sensor_id;sensor_type;location;lat;lon;timestamp;pressure;altitude;pressure_sealevel;temperature;humidity
5284;BME280;15377;48.540;9.268;2023-02-03T00:00:36;98752.13;;;5.56;100.00
5284;BME280;15377;48.540;9.268;2023-02-03T00:03:02;98745.88;;;5.55;100.00
5284;BME280;15377;48.540;9.268;2023-02-03T00:05:28;98751.72;;;5.54;100.00
5284;BME280;15377;48.540;9.268;2023-02-03T00:07:54;98757.59;;;5.56;100.00
5284;BME280;15377;48.540;9.268;2023-02-03T00:10:19;98743.53;;;5.54;100.00
5284;BME280;15377;48.540;9.268;2023-02-03T00:12:47;98743.53;;;5.54;100.00
5284;BME280;15377;48.540;9.268;2023-02-03T00:15:12;98751.66;;;5.61;100.00
5284;BME280;15377;48.540;9.268;2023-02-03T00:17:38;98744.28;;;5.58;100.00
5284;BME280;15377;48.540;9.268;2023-02-03T00:20:03;98739.22;;;5.56;100.00
5284;BME280;15377;48.540;9.268;2023-02-03T00:22:29;98738.47;;;5.56;100.00
5284;BME280;15377;48.540;9.268;2023-02-03T00:24:54;98727.94;;;5.54;100.00
5284;BME280;15377;48.540;9.268;2023-02-03T00:27:19;98728.72;;;5.55;100.00
5284;BME280;15377;48.540;9.268;2023-02-03T00:29:45;98735.78;;;5.52;100.00
5284;BME280;15377;48.540;9.268;2023-02-03T00:32:10;98725.63;;;5.53;100.00
5284;BME280;15377;48.540;9.268;2023-02-03T00:34:35;98727.63;;;5.49;100.00
5284;BME280;15377;48.540;9.268;2023-02-03T00:37:01;98721.13;;;5.36;100.00
5284;BME280;15377;48.540;9.268;2023-02-03T00:39:26;98722.75;;;5.26;100.00
5284;BME280;15377;48.540;9.268;2023-02-03T00:41:51;98725.97;;;5.18;100.00
5284;BME280;15377;48.540;9.268;2023-02-03T00:44:17;98735.38;;;5.13;100.00
5284;BME280;15377;48.540;9.268;2023-02-03T00:46:42;98745.13;;;5.11;100.00
5284;BME280;15377;48.540;9.268;2023-02-03T00:49:07;98746.69;;;5.12;100.00
5284;BME280;15377;48.540;9.268;2023-02-03T00:51:33;98737.75;;;5.08;100.00
5284;BME280;15377;48.540;9.268;2023-02-03T00:53:59;98736.59;;;5.09;100.00
5284;BME280;15377;48.540;9.268;2023-02-03T00:56:24;98731.56;;;5.04;100.00
5284;BME280;15377;48.540;9.268;2023-02-03T00:58:49;98732.31;;;5.08;100.00
5284;BME280;15377;48.540;9.268;2023-02-03T01:01:15;98735.41;;;5.10;100.00
5284;BME280;15377;48.540;9.268;2023-02-03T01:03:40;98733.09;;;5.05;100.00
5284;BME280;15377;48.540;9.268;2023-02-03T01:06:10;98747.47;;;5.12;100.00
5284;BME280;15377;48.540;9.268;2023-02-03T01:08:36;98743.56;;;5.13;100.00
5284;BME280;15377;48.540;9.268;2023-02-03T01:11:09;98748.59;;;5.15;100.00
5284;BME280;15377;48.540;9.268;2023-02-03T01:13:35;98746.75;;;5.05;100.00
5284;BME280;15377;48.540;9.268;2023-02-03T01:16:01;98756.44;;;5.09;100.00
5284;BME280;15377;48.540;9.268;2023-02-03T01:18:26;98761.09;;;5.16;100.00
5284;BME280;15377;48.540;9.268;2023-02-03T01:20:51;98758.72;;;5.18;100.00
5284;BME280;15377;48.540;9.268;2023-02-03T01:23:17;98757.13;;;5.24;100.00
5284;BME280;15377;48.540;9.268;2023-02-03T01:25:42;98762.56;;;5.24;100.00
5284;BME280;15377;48.540;9.268;2023-02-03T01:28:07;98747.72;;;5.28;100.00
5284;BME280;15377;48.540;9.268;2023-02-03T01:30:33;98749.28;;;5.26;100.00
5284;BME280;15377;48.540;9.268;2023-02-03T01:32:58;98723.16;;;5.28;100.00
5284;BME280;15377;48.540;9.268;2023-02-03T01:35:24;98711.81;;;5.30;100.00
5284;BME280;15377;48.540;9.268;2023-02-03T01:37:49;98691.91;;;5.33;100.00
5284;BME280;15377;48.540;9.268;2023-02-03T01:40:14;98688.41;;;5.32;100.00
5284;BME280;15377;48.540;9.268;2023-02-03T01:42:40;98675.91;;;5.35;100.00
5284;BME280;15377;48.540;9.268;2023-02-03T01:45:06;98684.44;;;5.37;100.00
5284;BME280;15377;48.540;9.268;2023-02-03T01:47:49;98705.53;;;5.36;100.00
5284;BME280;15377;48.540;9.268;2023-02-03T01:50:24;98700.81;;;5.37;100.00
5284;BME280;15377;48.540;9.268;2023-02-03T01:52:58;98671.25;;;5.32;100.00
5284;BME280;15377;48.540;9.268;2023-02-03T01:55:30;98674.75;;;5.32;100.00
5284;BME280;15377;48.540;9.268;2023-02-03T01:58:01;98681.41;;;5.28;100.00
5284;BME280;15377;48.540;9.268;2023-02-03T02:00:28;98672.91;;;5.22;100.00
5284;BME280;15377;48.540;9.268;2023-02-03T02:02:54;98682.59;;;5.27;100.00
5284;BME280;15377;48.540;9.268;2023-02-03T02:05:44;98682.22;;;5.28;100.00
5284;BME280;15377;48.540;9.268;2023-02-03T02:08:11;98679.50;;;5.25;100.00
5284;BME280;15377;48.540;9.268;2023-02-03T02:10:38;98683.44;;;5.24;100.00
5284;BME280;15377;48.540;9.268;2023-02-03T02:13:04;98688.41;;;5.32;100.00
5284;BME280;15377;48.540;9.268;2023-02-03T02:15:50;98698.53;;;5.35;100.00
5284;BME280;15377;48.540;9.268;2023-02-03T02:24:29;98698.81;;;5.44;100.00
5284;BME280;15377;48.540;9.268;2023-02-03T02:27:30;98689.75;;;5.51;100.00
5284;BME280;15377;48.540;9.268;2023-02-03T02:41:10;98627.31;;;5.53;100.00
5284;BME280;15377;48.540;9.268;2023-02-03T02:43:40;98639.78;;;5.54;100.00
5284;BME280;15377;48.540;9.268;2023-02-03T02:46:16;98652.28;;;5.55;100.00
5284;BME280;15377;48.540;9.268;2023-02-03T02:48:45;98643.63;;;5.60;100.00
5284;BME280;15377;48.540;9.268;2023-02-03T02:51:13;98653.00;;;5.59;100.00
5284;BME280;15377;48.540;9.268;2023-02-03T02:53:44;98620.28;;;5.55;100.00
5284;BME280;15377;48.540;9.268;2023-02-03T02:56:12;98639.25;;;5.66;100.00
5284;BME280;15377;48.540;9.268;2023-02-03T02:58:40;98629.16;;;5.63;100.00
5284;BME280;15377;48.540;9.268;2023-02-03T03:01:08;98636.09;;;5.71;100.00
5284;BME280;15377;48.540;9.268;2023-02-03T03:03:33;98615.50;;;5.63;100.00
5284;BME280;15377;48.540;9.268;2023-02-03T03:06:06;98619.00;;;5.63;100.00
5284;BME280;15377;48.540;9.268;2023-02-03T03:08:45;98645.16;;;5.61;100.00
5284;BME280;15377;48.540;9.268;2023-02-03T03:11:12;98648.28;;;5.63;100.00
5284;BME280;15377;48.540;9.268;2023-02-03T03:13:42;98644.72;;;5.66;100.00
5284;BME280;15377;48.540;9.268;2023-02-03T03:16:10;98642.81;;;5.63;100.00
5284;BME280;15377;48.540;9.268;2023-02-03T03:18:46;98651.38;;;5.65;100.00
5284;BME280;15377;48.540;9.268;2023-02-03T03:21:19;98653.03;;;5.55;100.00
5284;BME280;15377;48.540;9.268;2023-02-03T03:23:49;98653.66;;;5.66;100.00
5284;BME280;15377;48.540;9.268;2023-02-03T03:26:35;98648.16;;;5.70;100.00
5284;BME280;15377;48.540;9.268;2023-02-03T03:29:18;98653.63;;;5.70;100.00
5284;BME280;15377;48.540;9.268;2023-02-03T03:31:46;98652.13;;;5.65;100.00
5284;BME280;15377;48.540;9.268;2023-02-03T03:34:12;98647.00;;;5.71;100.00
5284;BME280;15377;48.540;9.268;2023-02-03T03:36:56;98643.91;;;5.69;100.00
5284;BME280;15377;48.540;9.268;2023-02-03T03:42:22;98658.69;;;5.71;100.00
5284;BME280;15377;48.540;9.268;2023-02-03T03:44:56;98652.91;;;5.66;100.00
5284;BME280;15377;48.540;9.268;2023-02-03T03:47:35;98668.13;;;5.67;100.00
5284;BME280;15377;48.540;9.268;2023-02-03T03:50:05;98679.41;;;5.69;100.00
5284;BME280;15377;48.540;9.268;2023-02-03T03:52:33;98690.31;;;5.69;100.00
5284;BME280;15377;48.540;9.268;2023-02-03T03:55:02;98696.56;;;5.69;100.00
5284;BME280;15377;48.540;9.268;2023-02-03T03:57:35;98702.75;;;5.73;100.00
5284;BME280;15377;48.540;9.268;2023-02-03T04:00:04;98693.00;;;5.72;100.00
5284;BME280;15377;48.540;9.268;2023-02-03T04:02:33;98699.63;;;5.75;100.00
5284;BME280;15377;48.540;9.268;2023-02-03T04:05:01;98715.19;;;5.78;100.00
5284;BME280;15377;48.540;9.268;2023-02-03T04:07:45;98729.25;;;5.80;100.00
5284;BME280;15377;48.540;9.268;2023-02-03T04:12:54;98724.56;;;5.77;100.00
5284;BME280;15377;48.540;9.268;2023-02-03T04:15:19;98736.28;;;5.77;100.00
5284;BME280;15377;48.540;9.268;2023-02-03T04:17:45;98737.81;;;5.82;100.00
5284;BME280;15377;48.540;9.268;2023-02-03T04:20:11;98731.19;;;5.79;100.00
5284;BME280;15377;48.540;9.268;2023-02-03T04:22:37;98730.81;;;5.81;100.00
5284;BME280;15377;48.540;9.268;2023-02-03T04:25:02;98726.53;;;5.80;100.00
5284;BME280;15377;48.540;9.268;2023-02-03T04:27:28;98715.16;;;5.81;100.00
5284;BME280;15377;48.540;9.268;2023-02-03T04:29:53;98712.09;;;5.79;100.00
5284;BME280;15377;48.540;9.268;2023-02-03T04:32:18;98723.00;;;5.79;100.00
5284;BME280;15377;48.540;9.268;2023-02-03T04:34:45;98705.81;;;5.79;100.00
5284;BME280;15377;48.540;9.268;2023-02-03T04:37:10;98712.41;;;5.85;100.00
5284;BME280;15377;48.540;9.268;2023-02-03T04:39:35;98712.78;;;5.87;100.00
5284;BME280;15377;48.540;9.268;2023-02-03T04:42:01;98722.97;;;5.83;100.00
5284;BME280;15377;48.540;9.268;2023-02-03T04:44:26;98714.41;;;5.81;100.00
5284;BME280;15377;48.540;9.268;2023-02-03T04:46:51;98700.41;;;5.75;100.00
5284;BME280;15377;48.540;9.268;2023-02-03T04:49:17;98671.91;;;5.76;100.00
5284;BME280;15377;48.540;9.268;2023-02-03T04:51:42;98657.22;;;5.63;100.00
5284;BME280;15377;48.540;9.268;2023-02-03T04:54:09;98671.69;;;5.64;100.00
5284;BME280;15377;48.540;9.268;2023-02-03T04:56:34;98669.75;;;5.61;100.00
5284;BME280;15377;48.540;9.268;2023-02-03T04:59:00;98667.78;;;5.61;100.00
5284;BME280;15377;48.540;9.268;2023-02-03T05:01:25;98658.03;;;5.64;100.00
5284;BME280;15377;48.540;9.268;2023-02-03T05:03:50;98651.78;;;5.63;100.00
5284;BME280;15377;48.540;9.268;2023-02-03T05:06:16;98659.19;;;5.63;100.00
5284;BME280;15377;48.540;9.268;2023-02-03T05:08:41;98666.22;;;5.64;100.00
5284;BME280;15377;48.540;9.268;2023-02-03T05:11:06;98672.03;;;5.66;100.00
5284;BME280;15377;48.540;9.268;2023-02-03T05:13:32;98666.25;;;5.60;100.00
5284;BME280;15377;48.540;9.268;2023-02-03T05:15:57;98665.53;;;5.53;100.00
5284;BME280;15377;48.540;9.268;2023-02-03T05:18:22;98671.31;;;5.58;100.00
5284;BME280;15377;48.540;9.268;2023-02-03T05:20:47;98663.91;;;5.59;100.00
5284;BME280;15377;48.540;9.268;2023-02-03T05:23:13;98671.72;;;5.60;100.00
5284;BME280;15377;48.540;9.268;2023-02-03T05:25:38;98682.69;;;5.57;100.00
5284;BME280;15377;48.540;9.268;2023-02-03T05:28:04;98681.97;;;5.49;100.00
5284;BME280;15377;48.540;9.268;2023-02-03T05:30:29;98687.47;;;5.46;100.00
5284;BME280;15377;48.540;9.268;2023-02-03T05:32:55;98692.19;;;5.42;100.00
5284;BME280;15377;48.540;9.268;2023-02-03T05:35:20;98696.13;;;5.41;100.00
5284;BME280;15377;48.540;9.268;2023-02-03T05:37:45;98679.03;;;5.33;100.00
5284;BME280;15377;48.540;9.268;2023-02-03T05:40:12;98684.91;;;5.32;100.00
5284;BME280;15377;48.540;9.268;2023-02-03T05:42:56;98681.78;;;5.30;100.00
5284;BME280;15377;48.540;9.268;2023-02-03T05:45:22;98678.28;;;5.29;100.00
5284;BME280;15377;48.540;9.268;2023-02-03T05:47:47;98690.75;;;5.30;100.00
5284;BME280;15377;48.540;9.268;2023-02-03T05:50:12;98699.31;;;5.32;100.00
5284;BME280;15377;48.540;9.268;2023-02-03T05:52:38;98706.31;;;5.33;100.00
5284;BME280;15377;48.540;9.268;2023-02-03T05:55:03;98720.38;;;5.32;100.00
5284;BME280;15377;48.540;9.268;2023-02-03T05:57:29;98724.28;;;5.31;100.00
5284;BME280;15377;48.540;9.268;2023-02-03T05:59:54;98711.06;;;5.29;100.00
5284;BME280;15377;48.540;9.268;2023-02-03T06:02:19;98703.28;;;5.24;100.00
5284;BME280;15377;48.540;9.268;2023-02-03T06:04:45;98708.81;;;5.17;100.00
5284;BME280;15377;48.540;9.268;2023-02-03T06:07:10;98691.72;;;5.13;100.00
5284;BME280;15377;48.540;9.268;2023-02-03T06:09:35;98684.69;;;5.16;100.00
5284;BME280;15377;48.540;9.268;2023-02-03T06:12:01;98683.09;;;5.15;100.00
5284;BME280;15377;48.540;9.268;2023-02-03T06:14:26;98683.06;;;5.18;100.00
5284;BME280;15377;48.540;9.268;2023-02-03T06:16:52;98681.53;;;5.17;100.00
5284;BME280;15377;48.540;9.268;2023-02-03T06:19:18;98703.34;;;5.17;100.00
5284;BME280;15377;48.540;9.268;2023-02-03T06:21:43;98711.88;;;5.23;100.00
5284;BME280;15377;48.540;9.268;2023-02-03T06:24:09;98703.69;;;5.23;100.00
5284;BME280;15377;48.540;9.268;2023-02-03T06:26:34;98704.84;;;5.25;100.00
5284;BME280;15377;48.540;9.268;2023-02-03T06:29:00;98695.47;;;5.26;100.00
5284;BME280;15377;48.540;9.268;2023-02-03T06:31:25;98682.59;;;5.27;100.00
5284;BME280;15377;48.540;9.268;2023-02-03T06:33:50;98684.59;;;5.23;100.00
5284;BME280;15377;48.540;9.268;2023-02-03T06:36:16;98672.63;;;5.13;100.00
5284;BME280;15377;48.540;9.268;2023-02-03T06:38:41;98669.56;;;5.08;100.00
5284;BME280;15377;48.540;9.268;2023-02-03T06:41:06;98677.75;;;5.08;100.00
5284;BME280;15377;48.540;9.268;2023-02-03T06:43:32;98675.38;;;5.10;100.00
5284;BME280;15377;48.540;9.268;2023-02-03T06:45:57;98681.56;;;5.14;100.00
5284;BME280;15377;48.540;9.268;2023-02-03T06:48:23;98681.91;;;5.19;100.00
5284;BME280;15377;48.540;9.268;2023-02-03T06:50:48;98656.28;;;5.10;100.00
5284;BME280;15377;48.540;9.268;2023-02-03T06:53:13;98688.88;;;5.24;100.00
5284;BME280;15377;48.540;9.268;2023-02-03T06:55:39;98697.78;;;5.28;100.00
5284;BME280;15377;48.540;9.268;2023-02-03T06:58:05;98686.84;;;5.31;100.00
5284;BME280;15377;48.540;9.268;2023-02-03T07:00:31;98668.88;;;5.34;100.00
5284;BME280;15377;48.540;9.268;2023-02-03T07:02:57;98671.25;;;5.32;100.00
5284;BME280;15377;48.540;9.268;2023-02-03T07:05:24;98643.75;;;5.16;100.00
5284;BME280;15377;48.540;9.268;2023-02-03T07:07:52;98649.47;;;5.28;100.00
5284;BME280;15377;48.540;9.268;2023-02-03T07:10:17;98640.09;;;5.29;100.00
5284;BME280;15377;48.540;9.268;2023-02-03T07:12:43;98647.91;;;5.27;100.00
5284;BME280;15377;48.540;9.268;2023-02-03T07:15:09;98644.69;;;5.36;100.00
5284;BME280;15377;48.540;9.268;2023-02-03T07:17:35;98639.97;;;5.40;100.00
5284;BME280;15377;48.540;9.268;2023-02-03T07:20:00;98655.53;;;5.43;100.00
5284;BME280;15377;48.540;9.268;2023-02-03T07:22:26;98656.28;;;5.47;100.00
5284;BME280;15377;48.540;9.268;2023-02-03T07:24:51;98664.00;;;5.52;100.00
5284;BME280;15377;48.540;9.268;2023-02-03T07:27:16;98660.09;;;5.53;100.00
5284;BME280;15377;48.540;9.268;2023-02-03T07:29:43;98655.06;;;5.51;100.00
5284;BME280;15377;48.540;9.268;2023-02-03T07:32:08;98657.00;;;5.51;100.00
5284;BME280;15377;48.540;9.268;2023-02-03T07:34:33;98652.38;;;5.48;100.00
5284;BME280;15377;48.540;9.268;2023-02-03T07:36:59;98654.66;;;5.49;100.00
5284;BME280;15377;48.540;9.268;2023-02-03T07:39:24;98647.25;;;5.50;100.00
5284;BME280;15377;48.540;9.268;2023-02-03T07:41:49;98638.25;;;5.53;100.00
5284;BME280;15377;48.540;9.268;2023-02-03T07:44:15;98639.75;;;5.57;100.00
5284;BME280;15377;48.540;9.268;2023-02-03T07:46:40;98644.38;;;5.64;100.00
5284;BME280;15377;48.540;9.268;2023-02-03T07:49:10;98654.06;;;5.68;100.00
5284;BME280;15377;48.540;9.268;2023-02-03T07:51:35;98648.56;;;5.72;100.00
5284;BME280;15377;48.540;9.268;2023-02-03T07:54:01;98657.47;;;5.76;100.00
5284;BME280;15377;48.540;9.268;2023-02-03T07:56:26;98657.44;;;5.79;100.00
5284;BME280;15377;48.540;9.268;2023-02-03T07:58:51;98666.78;;;5.82;100.00
5284;BME280;15377;48.540;9.268;2023-02-03T08:01:17;98678.50;;;5.79;100.00
5284;BME280;15377;48.540;9.268;2023-02-03T08:06:14;98707.44;;;5.73;100.00
5284;BME280;15377;48.540;9.268;2023-02-03T08:08:40;98698.16;;;5.67;100.00
5284;BME280;15377;48.540;9.268;2023-02-03T08:11:06;98693.53;;;5.64;100.00
5284;BME280;15377;48.540;9.268;2023-02-03T08:13:31;98695.81;;;5.65;100.00
5284;BME280;15377;48.540;9.268;2023-02-03T08:15:57;98700.53;;;5.65;100.00
5284;BME280;15377;48.540;9.268;2023-02-03T08:18:22;98723.13;;;5.65;100.00
5284;BME280;15377;48.540;9.268;2023-02-03T08:20:48;98730.09;;;5.70;100.00
5284;BME280;15377;48.540;9.268;2023-02-03T08:23:13;98729.31;;;5.73;100.00
5284;BME280;15377;48.540;9.268;2023-02-03T08:25:39;98727.38;;;5.70;100.00
5284;BME280;15377;48.540;9.268;2023-02-03T08:28:04;98742.50;;;5.78;100.00
5284;BME280;15377;48.540;9.268;2023-02-03T08:30:30;98727.69;;;5.79;100.00
5284;BME280;15377;48.540;9.268;2023-02-03T08:32:56;98742.41;;;5.88;100.00
5284;BME280;15377;48.540;9.268;2023-02-03T08:35:21;98725.97;;;5.92;100.00
5284;BME280;15377;48.540;9.268;2023-02-03T08:37:47;98734.16;;;5.92;100.00
5284;BME280;15377;48.540;9.268;2023-02-03T08:40:12;98739.25;;;5.93;100.00
5284;BME280;15377;48.540;9.268;2023-02-03T08:42:37;98742.72;;;5.94;100.00
5284;BME280;15377;48.540;9.268;2023-02-03T08:45:04;98738.44;;;5.93;100.00
5284;BME280;15377;48.540;9.268;2023-02-03T08:47:29;98725.97;;;5.92;100.00
5284;BME280;15377;48.540;9.268;2023-02-03T08:49:55;98735.28;;;5.98;100.00
5284;BME280;15377;48.540;9.268;2023-02-03T08:52:20;98733.34;;;5.98;100.00
5284;BME280;15377;48.540;9.268;2023-02-03T08:54:46;98731.41;;;5.95;100.00
5284;BME280;15377;48.540;9.268;2023-02-03T08:57:12;98730.25;;;5.93;100.00
5284;BME280;15377;48.540;9.268;2023-02-03T08:59:38;98747.75;;;5.99;100.00
5284;BME280;15377;48.540;9.268;2023-02-03T09:02:05;98746.03;;;6.12;100.00
5284;BME280;15377;48.540;9.268;2023-02-03T09:04:32;98725.69;;;6.16;100.00
5284;BME280;15377;48.540;9.268;2023-02-03T09:06:58;98736.91;;;6.22;100.00
5284;BME280;15377;48.540;9.268;2023-02-03T09:09:24;98717.78;;;6.22;100.00
5284;BME280;15377;48.540;9.268;2023-02-03T09:11:51;98726.38;;;6.20;100.00
5284;BME280;15377;48.540;9.268;2023-02-03T09:14:16;98721.88;;;6.07;100.00
5284;BME280;15377;48.540;9.268;2023-02-03T09:16:42;98727.25;;;6.14;100.00
5284;BME280;15377;48.540;9.268;2023-02-03T09:19:07;98735.81;;;6.16;100.00
5284;BME280;15377;48.540;9.268;2023-02-03T09:21:33;98740.41;;;6.26;100.00
5284;BME280;15377;48.540;9.268;2023-02-03T09:24:02;98724.84;;;6.19;100.00
5284;BME280;15377;48.540;9.268;2023-02-03T09:26:28;98714.84;;;6.09;100.00
5284;BME280;15377;48.540;9.268;2023-02-03T09:28:53;98720.28;;;6.09;100.00
5284;BME280;15377;48.540;9.268;2023-02-03T09:31:18;98722.63;;;6.11;100.00
5284;BME280;15377;48.540;9.268;2023-02-03T09:33:44;98709.28;;;6.16;100.00
5284;BME280;15377;48.540;9.268;2023-02-03T09:36:10;98711.47;;;6.25;100.00
5284;BME280;15377;48.540;9.268;2023-02-03T09:38:36;98716.84;;;6.32;100.00
5284;BME280;15377;48.540;9.268;2023-02-03T09:46:41;98726.53;;;6.66;100.00
5284;BME280;15377;48.540;9.268;2023-02-03T09:49:11;98721.44;;;6.65;100.00
5284;BME280;15377;48.540;9.268;2023-02-03T09:51:51;98720.28;;;6.66;100.00
5284;BME280;15377;48.540;9.268;2023-02-03T09:54:26;98729.66;;;6.65;100.00
5284;BME280;15377;48.540;9.268;2023-02-03T09:56:56;98721.72;;;6.74;100.00
5284;BME280;15377;48.540;9.268;2023-02-03T09:59:25;98730.06;;;6.90;100.00
5284;BME280;15377;48.540;9.268;2023-02-03T10:02:04;98729.47;;;7.02;100.00
5284;BME280;15377;48.540;9.268;2023-02-03T10:04:50;98736.44;;;7.06;100.00
5284;BME280;15377;48.540;9.268;2023-02-03T10:07:30;98743.88;;;7.06;100.00
5284;BME280;15377;48.540;9.268;2023-02-03T10:12:42;98721.22;;;7.05;100.00
5284;BME280;15377;48.540;9.268;2023-02-03T10:17:53;98713.72;;;6.86;100.00
5284;BME280;15377;48.540;9.268;2023-02-03T10:20:25;98710.91;;;6.90;100.00
5284;BME280;15377;48.540;9.268;2023-02-03T10:23:03;98682.94;;;6.79;100.00
5284;BME280;15377;48.540;9.268;2023-02-03T10:25:33;98680.94;;;6.83;100.00
5284;BME280;15377;48.540;9.268;2023-02-03T10:28:02;98694.13;;;6.88;100.00
5284;BME280;15377;48.540;9.268;2023-02-03T10:30:36;98687.34;;;6.96;100.00
5284;BME280;15377;48.540;9.268;2023-02-03T10:33:15;98694.75;;;6.99;100.00
5284;BME280;15377;48.540;9.268;2023-02-03T10:36:10;98733.16;;;6.92;100.00
5284;BME280;15377;48.540;9.268;2023-02-03T10:38:58;98725.91;;;6.82;100.00
5284;BME280;15377;48.540;9.268;2023-02-03T10:41:28;98715.50;;;6.96;100.00
5284;BME280;15377;48.540;9.268;2023-02-03T10:43:54;98721.63;;;7.03;100.00
5284;BME280;15377;48.540;9.268;2023-02-03T10:46:28;98736.38;;;7.09;100.00
5284;BME280;15377;48.540;9.268;2023-02-03T10:48:55;98732.81;;;7.13;100.00
5284;BME280;15377;48.540;9.268;2023-02-03T10:51:25;98736.63;;;7.18;100.00
5284;BME280;15377;48.540;9.268;2023-02-03T10:53:52;98743.63;;;7.19;100.00
5284;BME280;15377;48.540;9.268;2023-02-03T10:56:36;98708.41;;;7.21;100.00
5284;BME280;15377;48.540;9.268;2023-02-03T10:59:05;98726.69;;;7.05;100.00
5284;BME280;15377;48.540;9.268;2023-02-03T11:01:42;98707.13;;;7.07;100.00
5284;BME280;15377;48.540;9.268;2023-02-03T11:04:27;98694.34;;;7.19;100.00
5284;BME280;15377;48.540;9.268;2023-02-03T11:06:55;98689.66;;;7.20;100.00
5284;BME280;15377;48.540;9.268;2023-02-03T11:09:31;98694.50;;;7.13;100.00
5284;BME280;15377;48.540;9.268;2023-02-03T11:12:17;98664.88;;;7.07;100.00
5284;BME280;15377;48.540;9.268;2023-02-03T11:14:48;98667.81;;;7.16;100.00
5284;BME280;15377;48.540;9.268;2023-02-03T11:17:34;98647.28;;;7.28;100.00
5284;BME280;15377;48.540;9.268;2023-02-03T11:20:13;98646.34;;;7.34;100.00
5284;BME280;15377;48.540;9.268;2023-02-03T11:22:41;98643.69;;;7.31;100.00
5284;BME280;15377;48.540;9.268;2023-02-03T11:25:23;98662.47;;;7.52;100.00
5284;BME280;15377;48.540;9.268;2023-02-03T11:27:52;98657.13;;;7.45;100.00
5284;BME280;15377;48.540;9.268;2023-02-03T11:30:22;98653.50;;;7.51;100.00
5284;BME280;15377;48.540;9.268;2023-02-03T11:32:49;98635.28;;;7.41;100.00
5284;BME280;15377;48.540;9.268;2023-02-03T11:35:33;98638.16;;;7.34;100.00
5284;BME280;15377;48.540;9.268;2023-02-03T11:38:02;98666.25;;;7.38;100.00
5284;BME280;15377;48.540;9.268;2023-02-03T11:45:40;98663.16;;;7.36;100.00
5284;BME280;15377;48.540;9.268;2023-02-03T11:51:04;98660.44;;;7.36;100.00
5284;BME280;15377;48.540;9.268;2023-02-03T11:59:29;98673.47;;;7.29;100.00
5284;BME280;15377;48.540;9.268;2023-02-03T12:10:36;98634.59;;;7.37;100.00
5284;BME280;15377;48.540;9.268;2023-02-03T12:26:15;98648.19;;;7.21;100.00
5284;BME280;15377;48.540;9.268;2023-02-03T12:29:06;98646.06;;;7.09;100.00
5284;BME280;15377;48.540;9.268;2023-02-03T12:31:44;98630.47;;;7.07;100.00
5284;BME280;15377;48.540;9.268;2023-02-03T12:34:20;98623.88;;;7.04;100.00
5284;BME280;15377;48.540;9.268;2023-02-03T12:36:51;98634.09;;;7.00;100.00
5284;BME280;15377;48.540;9.268;2023-02-03T12:39:28;98642.25;;;7.03;100.00
5284;BME280;15377;48.540;9.268;2023-02-03T12:42:01;98649.41;;;6.98;100.00
5284;BME280;15377;48.540;9.268;2023-02-03T12:44:34;98623.72;;;6.92;100.00
5284;BME280;15377;48.540;9.268;2023-02-03T12:47:10;98625.00;;;7.07;100.00
5284;BME280;15377;48.540;9.268;2023-02-03T12:49:45;98601.44;;;7.13;100.00
5284;BME280;15377;48.540;9.268;2023-02-03T12:52:39;98602.69;;;7.27;100.00
5284;BME280;15377;48.540;9.268;2023-02-03T12:57:50;98585.78;;;7.32;100.00
5284;BME280;15377;48.540;9.268;2023-02-03T13:03:22;98597.13;;;7.31;100.00
5284;BME280;15377;48.540;9.268;2023-02-03T13:11:35;98540.09;;;7.29;100.00
5284;BME280;15377;48.540;9.268;2023-02-03T13:14:09;98540.22;;;7.22;100.00
5284;BME280;15377;48.540;9.268;2023-02-03T13:16:39;98529.28;;;7.22;100.00
5284;BME280;15377;48.540;9.268;2023-02-03T13:19:17;98522.94;;;7.25;100.00
5284;BME280;15377;48.540;9.268;2023-02-03T13:21:47;98556.94;;;7.28;100.00
5284;BME280;15377;48.540;9.268;2023-02-03T13:24:12;98550.31;;;7.25;100.00
5284;BME280;15377;48.540;9.268;2023-02-03T13:27:08;98540.28;;;7.19;100.00
5284;BME280;15377;48.540;9.268;2023-02-03T13:30:07;98535.88;;;7.25;100.00
5284;BME280;15377;48.540;9.268;2023-02-03T13:38:41;98559.03;;;7.20;100.00
5284;BME280;15377;48.540;9.268;2023-02-03T13:43:43;98571.31;;;7.13;100.00
5284;BME280;15377;48.540;9.268;2023-02-03T13:48:45;98572.88;;;7.13;100.00
5284;BME280;15377;48.540;9.268;2023-02-03T13:51:16;98574.88;;;7.09;100.00
5284;BME280;15377;48.540;9.268;2023-02-03T13:53:45;98564.66;;;7.13;100.00
5284;BME280;15377;48.540;9.268;2023-02-03T13:56:31;98556.00;;;7.15;100.00
5284;BME280;15377;48.540;9.268;2023-02-03T13:58:59;98555.19;;;7.18;100.00
5284;BME280;15377;48.540;9.268;2023-02-03T14:01:29;98537.63;;;7.15;100.00
5284;BME280;15377;48.540;9.268;2023-02-03T14:03:58;98537.97;;;7.17;100.00
5284;BME280;15377;48.540;9.268;2023-02-03T14:14:41;98553.19;;;7.18;100.00
5284;BME280;15377;48.540;9.268;2023-02-03T14:19:59;98564.16;;;7.18;100.00
5284;BME280;15377;48.540;9.268;2023-02-03T14:22:24;98559.38;;;7.22;100.00
5284;BME280;15377;48.540;9.268;2023-02-03T14:24:52;98546.38;;;7.26;100.00
5284;BME280;15377;48.540;9.268;2023-02-03T14:27:22;98559.03;;;7.20;100.00
5284;BME280;15377;48.540;9.268;2023-02-03T14:30:16;98563.66;;;7.23;100.00
5284;BME280;15377;48.540;9.268;2023-02-03T14:32:59;98573.06;;;7.22;100.00
5284;BME280;15377;48.540;9.268;2023-02-03T14:35:37;98566.81;;;7.22;100.00
5284;BME280;15377;48.540;9.268;2023-02-03T14:38:10;98566.19;;;7.14;100.00
5284;BME280;15377;48.540;9.268;2023-02-03T14:48:38;98564.66;;;7.13;100.00
5284;BME280;15377;48.540;9.268;2023-02-03T14:59:02;98578.69;;;7.15;100.00
5284;BME280;15377;48.540;9.268;2023-02-03T15:06:40;98572.34;;;7.18;100.00
5284;BME280;15377;48.540;9.268;2023-02-03T15:11:52;98568.53;;;7.16;100.00
5284;BME280;15377;48.540;9.268;2023-02-03T15:14:21;98570.06;;;7.17;100.00
5284;BME280;15377;48.540;9.268;2023-02-03T15:16:53;98553.00;;;7.09;100.00
5284;BME280;15377;48.540;9.268;2023-02-03T15:19:22;98563.13;;;7.13;100.00
5284;BME280;15377;48.540;9.268;2023-02-03T15:21:48;98575.59;;;7.13;100.00
5284;BME280;15377;48.540;9.268;2023-02-03T15:24:15;98585.75;;;7.13;100.00
5284;BME280;15377;48.540;9.268;2023-02-03T15:26:51;98577.97;;;7.11;100.00
5284;BME280;15377;48.540;9.268;2023-02-03T15:29:29;98576.44;;;7.10;100.00